Map

Track Data

SID SEASON NUMBER BASIN SUBBASIN NAME ISO_TIME NATURE LAT LON WMO_WIND WMO_PRES WMO_AGENCY TRACK_TYPE DIST2LAND LANDFALL IFLAG USA_AGENCY USA_ATCF_ID USA_LAT USA_LON USA_RECORD USA_STATUS USA_WIND USA_PRES USA_SSHS USA_R34_NE USA_R34_SE USA_R34_SW USA_R34_NW USA_R50_NE USA_R50_SE USA_R50_SW USA_R50_NW USA_R64_NE USA_R64_SE USA_R64_SW USA_R64_NW USA_POCI USA_ROCI USA_RMW USA_EYE TOKYO_LAT TOKYO_LON TOKYO_GRADE TOKYO_WIND TOKYO_PRES TOKYO_R50_DIR TOKYO_R50_LONG TOKYO_R50_SHORT TOKYO_R30_DIR TOKYO_R30_LONG TOKYO_R30_SHORT TOKYO_LAND CMA_LAT CMA_LON CMA_CAT CMA_WIND CMA_PRES HKO_LAT HKO_LON HKO_CAT HKO_WIND HKO_PRES NEWDELHI_LAT NEWDELHI_LON NEWDELHI_GRADE NEWDELHI_WIND NEWDELHI_PRES NEWDELHI_CI NEWDELHI_DP NEWDELHI_POCI REUNION_LAT REUNION_LON REUNION_TYPE REUNION_WIND REUNION_PRES REUNION_TNUM REUNION_CI REUNION_RMW REUNION_R34_NE REUNION_R34_SE REUNION_R34_SW REUNION_R34_NW REUNION_R50_NE REUNION_R50_SE REUNION_R50_SW REUNION_R50_NW REUNION_R64_NE REUNION_R64_SE REUNION_R64_SW REUNION_R64_NW BOM_LAT BOM_LON BOM_TYPE BOM_WIND BOM_PRES BOM_TNUM BOM_CI BOM_RMW BOM_R34_NE BOM_R34_SE BOM_R34_SW BOM_R34_NW BOM_R50_NE BOM_R50_SE BOM_R50_SW BOM_R50_NW BOM_R64_NE BOM_R64_SE BOM_R64_SW BOM_R64_NW BOM_ROCI BOM_POCI BOM_EYE BOM_POS_METHOD BOM_PRES_METHOD NADI_LAT NADI_LON NADI_CAT NADI_WIND NADI_PRES WELLINGTON_LAT WELLINGTON_LON WELLINGTON_WIND WELLINGTON_PRES DS824_LAT DS824_LON DS824_STAGE DS824_WIND DS824_PRES TD9636_LAT TD9636_LON TD9636_STAGE TD9636_WIND TD9636_PRES TD9635_LAT TD9635_LON TD9635_WIND TD9635_PRES TD9635_ROCI NEUMANN_LAT NEUMANN_LON NEUMANN_CLASS NEUMANN_WIND NEUMANN_PRES MLC_LAT MLC_LON MLC_CLASS MLC_WIND MLC_PRES USA_GUST BOM_GUST BOM_GUST_PER REUNION_GUST REUNION_GUST_PER USA_SEAHGT USA_SEARAD_NE USA_SEARAD_SE USA_SEARAD_SW USA_SEARAD_NW STORM_SPEED STORM_DIR
1889159N15087 1889 3 NI BB NOT_NAMED 1889-06-08 00:00:00 TS 14.7000 86.7000 main 489 470 _________O____ -1 14.7000 86.7000 TC 45 5 357
1889159N15087 1889 3 NI BB NOT_NAMED 1889-06-08 03:00:00 TS 14.9650 86.6934 main 461 435 _________PO___ -1 15.0975 86.6900 TC 45 14.7000 86.7000 3 6 2
1889159N15087 1889 3 NI BB NOT_NAMED 1889-06-08 06:00:00 TS 15.3375 86.7094 main 435 401 _________OP___ -1 15.5000 86.7000 TC 45 15.0938 86.7234 3 8 4
1889159N15087 1889 3 NI BB NOT_NAMED 1889-06-08 09:00:00 TS 15.7286 86.7446 main 401 377 _________PP___ -1 15.9075 86.7425 TC 45 15.4901 86.7475 3 8 6
1889159N15087 1889 3 NI BB NOT_NAMED 1889-06-08 12:00:00 TS 16.0956 86.7864 main 377 346 _________OP___ -1 16.3000 86.8000 TC 45 15.8913 86.7728 3 8 6
1889159N15087 1889 3 NI BB NOT_NAMED 1889-06-08 15:00:00 TS 16.4750 86.8287 main 346 330 _________PO___ -1 16.6500 86.8575 TC 45 16.3000 86.8000 3 8 6
1889159N15087 1889 3 NI BB NOT_NAMED 1889-06-08 18:00:00 TS 16.8573 86.8645 main 323 302 _________OP___ -1 17.0000 86.9000 TC 45 16.7147 86.8290 3 8 4
1889159N15087 1889 3 NI BB NOT_NAMED 1889-06-08 21:00:00 TS 17.2700 86.8825 main 295 270 _________PP___ -1 17.4225 86.9075 TC 45 17.1175 86.8574 3 8 2
1889159N15087 1889 3 NI BB NOT_NAMED 1889-06-09 00:00:00 TS 17.6433 86.8911 main 270 239 _________OP___ -1 17.8000 86.9000 TC 45 17.4865 86.8821 3 7 1
1889159N15087 1889 3 NI BB NOT_NAMED 1889-06-09 03:00:00 TS 17.9187 86.9000 main 239 218 _________PO___ -1 18.0375 86.9000 TC 45 17.8000 86.9000 3 5 3
1889159N15087 1889 3 NI BB NOT_NAMED 1889-06-09 06:00:00 TS 18.1142 86.9016 main 218 197 _________OP___ -1 18.2000 86.9000 TC 45 18.0284 86.9032 3 4 4
1889159N15087 1889 3 NI BB NOT_NAMED 1889-06-09 09:00:00 TS 18.2762 86.9001 main 197 186 _________PP___ -1 18.3500 86.9000 TC 45 18.2025 86.9001 3 3 356
1889159N15087 1889 3 NI BB NOT_NAMED 1889-06-09 12:00:00 TS 18.4251 86.8985 main 186 165 _________OP___ -1 18.5000 86.9000 TC 45 18.3503 86.8970 3 3 0
1889159N15087 1889 3 NI BB NOT_NAMED 1889-06-09 15:00:00 TS 18.5962 86.8963 main 165 144 _________PO___ -1 18.6925 86.8925 TC 45 18.5000 86.9000 3 4 0
1889159N15087 1889 3 NI BB NOT_NAMED 1889-06-09 18:00:00 TS 18.7944 86.9089 main 144 123 _________OP___ -1 18.9000 86.9000 TC 45 18.6888 86.9178 3 4 4
1889159N15087 1889 3 NI BB NOT_NAMED 1889-06-09 21:00:00 TS 18.9888 86.9462 main 123 109 _________PP___ -1 19.0925 86.9500 TC 45 18.8850 86.9425 3 4 9
1889159N15087 1889 3 NI BB NOT_NAMED 1889-06-10 00:00:00 TS 19.1944 86.9855 main 109 91 _________OP___ -1 19.3000 87.0000 TC 45 19.0888 86.9709 3 4 8
1889159N15087 1889 3 NI BB NOT_NAMED 1889-06-10 03:00:00 TS 19.4250 87.0000 main 91 71 _________PO___ -1 19.5500 87.0001 TC 45 19.3000 87.0000 3 5 0
1889159N15087 1889 3 NI BB NOT_NAMED 1889-06-10 06:00:00 TS 19.6630 87.0125 main 71 54 _________OP___ -1 19.8000 87.0000 TC 45 19.5259 87.0250 3 5 6
1889159N15087 1889 3 NI BB NOT_NAMED 1889-06-10 09:00:00 TS 19.8825 87.0500 main 61 47 _________PP___ -1 20.0075 87.0500 TC 45 19.7575 87.0500 3 4 9
1889159N15087 1889 3 NI BB NOT_NAMED 1889-06-10 12:00:00 TS 20.0927 87.0875 main 47 38 _________OP___ -1 20.2000 87.1000 TC 45 19.9853 87.0750 3 4 4
1889159N15087 1889 3 NI BB NOT_NAMED 1889-06-10 15:00:00 TS 20.3037 87.1000 main 38 23 _________PO___ -1 20.4075 87.1001 TC 41 20.2000 87.1000 3 4 0
1889159N15087 1889 3 NI BB NOT_NAMED 1889-06-10 18:00:00 TS 20.4825 87.1105 main 23 15 _________OP___ -1 20.6000 87.1000 TC 37 20.3650 87.1210 3 3 5
1889159N15087 1889 3 NI BB NOT_NAMED 1889-06-10 21:00:00 TS 20.6237 87.1426 main 15 15 _________PP___ -1 20.7275 87.1425 TC 33 20.5200 87.1427 3 3 12
1889159N15087 1889 3 NI BB NOT_NAMED 1889-06-11 00:00:00 TS 20.7950 87.1840 main 20 20 _________OP___ -1 20.9000 87.2000 TC 30 20.6900 87.1679 3 4 11
1889159N15087 1889 3 NI BB NOT_NAMED 1889-06-11 03:00:00 TS 21.0638 87.2250 main 38 22 _________PO___ -1 21.2275 87.2500 TC 30 20.9000 87.2000 1 6 8
1889159N15087 1889 3 NI BB NOT_NAMED 1889-06-11 06:00:00 TS 21.3909 87.2694 main 22 0 _________OP___ -1 21.6000 87.3000 TC 30 21.1819 87.2388 1 6 8
1889159N15087 1889 3 NI BB NOT_NAMED 1889-06-11 09:00:00 TS 21.7025 87.3175 main 0 0 _________PP___ -1 21.9000 87.3500 TC 30 21.5050 87.2850 1 6 9
1889159N15087 1889 3 NI BB NOT_NAMED 1889-06-11 12:00:00 TS 22.0253 87.3694 main 0 0 _________OP___ -1 22.2000 87.4000 TC 30 21.8506 87.3388 1 7 8
1889159N15087 1889 3 NI BB NOT_NAMED 1889-06-11 15:00:00 TS 22.3750 87.4213 main 0 0 _________PO___ -1 22.5500 87.4426 TC 30 22.2000 87.4000 1 7 8
1889159N15087 1889 3 NI BB NOT_NAMED 1889-06-11 18:00:00 TS 22.7206 87.4779 main 0 0 _________OP___ -1 22.9000 87.5000 TC 30 22.5412 87.4557 1 7 10
1889159N15087 1889 3 NI BB NOT_NAMED 1889-06-11 21:00:00 TS 23.0474 87.5526 main 0 0 _________PP___ -1 23.2150 87.5850 TC 30 22.8799 87.5202 1 7 14
1889159N15087 1889 3 NI BB NOT_NAMED 1889-06-12 00:00:00 TS 23.3518 87.6498 main 0 0 _________OP___ -1 23.5000 87.7000 TC 30 23.2037 87.5995 1 6 19
1889159N15087 1889 3 NI BB NOT_NAMED 1889-06-12 03:00:00 TS 23.6325 87.7713 main 0 0 _________PO___ -1 23.7650 87.8425 TC 30 23.5000 87.7000 1 6 24
1889159N15087 1889 3 NI BB NOT_NAMED 1889-06-12 06:00:00 TS 23.8809 87.9102 main 0 0 _________OP___ -1 24.0000 88.0000 TC 30 23.7618 87.8204 1 5 29
1889159N15087 1889 3 NI BB NOT_NAMED 1889-06-12 09:00:00 TS 24.1012 88.0526 main 0 0 _________PP___ -1 24.2075 88.1426 TC 30 23.9949 87.9626 1 5 33
1889159N15087 1889 3 NI BB NOT_NAMED 1889-06-12 12:00:00 TS 24.3028 88.2118 main 0 0 _________OP___ -1 24.4000 88.3000 TC 30 24.2056 88.1236 1 5 38
1889159N15087 1889 3 NI BB NOT_NAMED 1889-06-12 15:00:00 TS 24.5037 88.3962 main 0 0 _________PO___ -1 24.6075 88.4925 TC 30 24.4000 88.3000 1 5 42
1889159N15087 1889 3 NI BB NOT_NAMED 1889-06-12 18:00:00 TS 24.6765 88.5793 main 0 0 _________OP___ -1 24.8000 88.7000 TC 30 24.5839 88.4888 1 5 45
1889159N15087 1889 3 NI BB NOT_NAMED 1889-06-12 21:00:00 TS 24.8402 88.7732 main 0 0 _________PP___ -1 24.9600 88.9025 TC 30 24.7602 88.6871 1 5 48
1889159N15087 1889 3 NI BB NOT_NAMED 1889-06-13 00:00:00 TS 24.9877 88.9612 main 0 0 _________OP___ -1 25.1000 89.1000 TC 30 24.9315 88.8918 1 4 49
1889159N15087 1889 3 NI BB NOT_NAMED 1889-06-13 03:00:00 NR 25.1000 89.1000 main 0 __________O___ -1 TC 25.1000 89.1000 1 3 48

About IBTrACS Database

This database is a web-friendly format of International Best Track Archive for Climate Stewardship (IBTrACS), a global best track data archive curated by NOAA dating back to 1842.

Updated: 2021-12-08